Time;durP1;ratioP1;P1;durP2;ratioP2;P2;SDS_P1;SDS_P2;PMS_P1;PMS_P2;Temp;Humidity;BMP_temperature;BMP_pressure;BME280_temperature;BME280_humidity;BME280_pressure;Samples;Min_cycle;Max_cycle;Signal;HPM_P1;HPM_P2
2021/12/30 00:00:46;;;;;;;1.02;0.85;;;;;;;9.27;100.00;95931.22;5033464;28;20124;-73
2021/12/30 00:03:12;;;;;;;1.67;1.20;;;;;;;9.30;100.00;95938.75;5032798;28;20069;-73
2021/12/30 00:05:40;;;;;;;2.60;1.02;;;;;;;9.32;100.00;95945.47;5033339;28;20068;-73
2021/12/30 00:08:07;;;;;;;1.00;0.82;;;;;;;9.37;100.00;95947.22;5032889;28;20052;-73
2021/12/30 00:10:36;;;;;;;1.83;1.00;;;;;;;9.35;100.00;95952.97;5033192;28;20045;-73
2021/12/30 00:13:03;;;;;;;1.52;1.10;;;;;;;9.36;100.00;95956.50;5032620;28;20053;-73
2021/12/30 00:15:30;;;;;;;1.60;1.13;;;;;;;9.35;100.00;95955.69;5033260;28;20041;-73
2021/12/30 00:17:57;;;;;;;1.90;1.10;;;;;;;9.37;100.00;95958.88;5032971;28;20042;-73
2021/12/30 00:20:23;;;;;;;1.63;1.10;;;;;;;9.40;100.00;95957.47;5032522;28;20045;-73
2021/12/30 00:22:50;;;;;;;4.28;1.13;;;;;;;9.41;100.00;95969.94;5032801;28;20053;-73
2021/12/30 00:25:16;;;;;;;1.08;0.98;;;;;;;9.44;100.00;95969.28;5032298;28;20045;-73
2021/12/30 00:27:44;;;;;;;1.45;1.02;;;;;;;9.48;100.00;95975.66;5032707;28;20050;-73
2021/12/30 00:30:12;;;;;;;1.98;1.17;;;;;;;9.51;100.00;95980.47;5032322;28;20052;-73
2021/12/30 00:32:39;;;;;;;1.33;1.05;;;;;;;9.55;100.00;95992.31;5032787;28;20056;-73
2021/12/30 00:35:07;;;;;;;1.83;1.10;;;;;;;9.57;100.00;95992.78;5032403;28;20052;-73
2021/12/30 00:37:33;;;;;;;1.40;1.02;;;;;;;9.64;100.00;96003.97;5031587;28;20057;-73
2021/12/30 00:40:00;;;;;;;2.95;1.23;;;;;;;9.65;100.00;95994.69;5032559;28;20504;-73
2021/12/30 00:42:26;;;;;;;1.52;1.10;;;;;;;9.71;100.00;95999.97;5032087;28;20381;-73
2021/12/30 00:44:54;;;;;;;1.27;1.05;;;;;;;9.73;100.00;96014.06;5032725;28;20052;-73
2021/12/30 00:47:20;;;;;;;1.55;1.13;;;;;;;9.74;100.00;96011.00;5031857;28;20057;-73
2021/12/30 00:49:47;;;;;;;1.27;1.10;;;;;;;9.77;100.00;96015.00;5032478;28;20061;-73
2021/12/30 00:52:13;;;;;;;1.60;1.10;;;;;;;9.77;100.00;96020.47;5031936;28;20052;-73
2021/12/30 00:54:40;;;;;;;1.48;1.00;;;;;;;9.88;100.00;96019.00;5032209;28;20045;-73
2021/12/30 00:57:06;;;;;;;1.38;1.00;;;;;;;9.94;99.56;96020.44;5031949;28;20045;-73
2021/12/30 00:59:33;;;;;;;1.30;1.20;;;;;;;9.96;99.32;96031.78;5032259;28;20041;-73
2021/12/30 01:02:01;;;;;;;1.73;1.10;;;;;;;10.01;99.35;96036.25;5032132;28;20081;-73
2021/12/30 01:04:27;;;;;;;1.60;1.00;;;;;;;10.02;99.04;96033.22;5031889;28;20042;-73
2021/12/30 01:06:54;;;;;;;2.53;1.20;;;;;;;10.04;98.91;96041.06;5032021;28;20652;-72
2021/12/30 01:09:20;;;;;;;2.15;0.80;;;;;;;10.07;98.60;96051.28;5031684;28;20051;-73
2021/12/30 01:11:47;;;;;;;8.55;1.00;;;;;;;10.06;98.39;96050.50;5032019;28;20072;-73
2021/12/30 01:14:18;;;;;;;1.20;0.80;;;;;;;10.11;98.47;96063.94;5031457;28;20049;-73
2021/12/30 01:16:48;;;;;;;1.40;0.88;;;;;;;10.09;98.46;96070.81;5032020;28;20432;-73
2021/12/30 01:19:23;;;;;;;1.05;0.80;;;;;;;10.17;98.35;96078.16;5031452;28;20722;-73
2021/12/30 01:21:52;;;;;;;0.68;0.63;;;;;;;10.18;98.90;96086.03;5031494;28;20076;-73
2021/12/30 01:24:18;;;;;;;2.10;0.80;;;;;;;10.13;99.53;96088.13;5031095;28;20056;-73
2021/12/30 01:26:45;;;;;;;0.98;0.57;;;;;;;10.10;100.00;96086.03;5031708;28;20060;-73
2021/12/30 01:29:11;;;;;;;0.60;0.55;;;;;;;10.07;100.00;96098.34;5030928;28;20053;-72
2021/12/30 01:31:38;;;;;;;0.75;0.45;;;;;;;10.06;100.00;96091.31;5031598;28;20499;-72
2021/12/30 01:34:04;;;;;;;0.95;0.60;;;;;;;10.07;100.00;96095.63;5031213;28;20049;-73
2021/12/30 01:36:32;;;;;;;0.88;0.60;;;;;;;10.07;100.00;96095.63;5031635;28;20049;-73
2021/12/30 01:38:59;;;;;;;1.73;0.50;;;;;;;10.09;100.00;96092.59;5031526;28;20057;-73
2021/12/30 01:41:25;;;;;;;0.95;0.70;;;;;;;10.08;100.00;96101.88;5031099;28;20507;-73
2021/12/30 01:43:52;;;;;;;0.75;0.70;;;;;;;10.09;100.00;96095.31;5031179;28;20622;-72
2021/12/30 01:46:18;;;;;;;0.60;0.60;;;;;;;10.10;100.00;96094.19;5031264;28;20076;-72
2021/12/30 01:48:45;;;;;;;1.00;0.80;;;;;;;10.10;100.00;96100.44;5031079;28;20057;-73
2021/12/30 01:51:12;;;;;;;0.77;0.63;;;;;;;10.14;100.00;96108.75;5030689;28;20519;-72
2021/12/30 01:53:40;;;;;;;0.73;0.60;;;;;;;10.12;100.00;96100.88;5031276;28;20054;-73
2021/12/30 01:56:07;;;;;;;1.00;0.77;;;;;;;10.12;100.00;96103.63;5030843;28;20053;-72
2021/12/30 01:58:35;;;;;;;1.05;0.80;;;;;;;10.17;100.00;96108.91;5030964;28;20500;-73
2021/12/30 02:01:03;;;;;;;1.02;0.73;;;;;;;10.17;100.00;96117.06;5030821;28;20049;-73
2021/12/30 02:03:29;;;;;;;1.13;0.73;;;;;;;10.18;100.00;96128.78;5031197;28;20041;-72
2021/12/30 02:05:56;;;;;;;0.60;0.60;;;;;;;10.20;100.00;96130.03;5030960;28;20421;-73
2021/12/30 02:08:22;;;;;;;0.63;0.60;;;;;;;10.22;100.00;96134.34;5030752;28;20053;-72
2021/12/30 02:10:51;;;;;;;0.90;0.77;;;;;;;10.19;100.00;96138.53;5031151;28;20052;-72
2021/12/30 02:13:19;;;;;;;1.00;0.80;;;;;;;10.17;100.00;96136.09;5030480;28;20053;-73
2021/12/30 02:15:46;;;;;;;1.48;0.70;;;;;;;10.19;100.00;96138.53;5031343;28;20050;-73
2021/12/30 02:18:13;;;;;;;1.40;0.82;;;;;;;10.19;100.00;96143.97;5030676;28;20045;-73
2021/12/30 02:20:48;;;;;;;1.25;0.60;;;;;;;10.22;100.00;96139.78;5030832;28;20566;-72
2021/12/30 02:23:18;;;;;;;1.08;0.88;;;;;;;10.20;100.00;96145.56;5030319;28;20046;-72
2021/12/30 02:25:46;;;;;;;0.95;0.80;;;;;;;10.22;100.00;96147.94;5030766;28;20049;-72
2021/12/30 02:28:14;;;;;;;1.55;0.88;;;;;;;10.23;100.00;96142.19;5030428;28;20050;-72
2021/12/30 02:30:42;;;;;;;0.60;0.57;;;;;;;10.25;100.00;96144.63;5030838;28;20393;-72
2021/12/30 02:33:10;;;;;;;0.95;0.68;;;;;;;10.27;100.00;96142.38;5030341;28;20523;-72
2021/12/30 02:35:37;;;;;;;0.77;0.60;;;;;;;10.28;100.00;96146.69;5030893;28;20057;-72
2021/12/30 02:38:05;;;;;;;0.82;0.60;;;;;;;10.29;100.00;96145.59;5030413;28;20038;-72
2021/12/30 02:40:36;;;;;;;1.13;0.60;;;;;;;10.30;100.00;96150.72;5030766;28;20052;-72
2021/12/30 02:43:05;;;;;;;0.60;0.50;;;;;;;10.31;100.00;96143.34;5030269;28;20548;-72
2021/12/30 02:45:32;;;;;;;2.95;0.50;;;;;;;10.33;100.00;96151.97;5031197;28;20041;-73
2021/12/30 02:47:58;;;;;;;1.40;0.95;;;;;;;10.39;99.90;96156.16;5030527;28;20060;-73
2021/12/30 02:50:25;;;;;;;0.40;0.40;;;;;;;10.39;99.53;96173.28;5030307;28;20042;-72
2021/12/30 02:52:52;;;;;;;0.40;0.40;;;;;;;10.45;99.29;96176.66;5030717;28;20049;-73
2021/12/30 02:55:20;;;;;;;0.45;0.40;;;;;;;10.50;98.74;96184.66;5029944;28;20049;-73
2021/12/30 02:57:47;;;;;;;0.40;0.30;;;;;;;10.54;98.33;96184.78;5030630;28;20523;-72
2021/12/30 03:00:14;;;;;;;0.30;0.30;;;;;;;10.56;98.09;96191.53;5031663;28;20049;-73
2021/12/30 03:02:41;;;;;;;0.30;0.20;;;;;;;10.56;97.87;96194.25;5034450;28;20045;-72
2021/12/30 03:05:09;;;;;;;0.30;0.30;;;;;;;10.61;97.55;96202.25;5033851;28;20049;-72
2021/12/30 03:07:37;;;;;;;0.63;0.30;;;;;;;10.63;97.19;96210.91;5034452;28;20037;-73
2021/12/30 03:10:04;;;;;;;0.70;0.50;;;;;;;10.64;96.78;96212.50;5033793;28;20046;-73
2021/12/30 03:12:32;;;;;;;0.40;0.35;;;;;;;10.66;96.59;96214.91;5034135;28;20045;-73
2021/12/30 03:15:00;;;;;;;0.40;0.40;;;;;;;10.65;96.76;96219.56;5034483;28;20060;-72
2021/12/30 03:17:26;;;;;;;0.40;0.30;;;;;;;10.66;96.53;96215.72;5033523;28;20053;-73
2021/12/30 03:19:57;;;;;;;0.30;0.30;;;;;;;10.64;96.10;96231.56;5034308;28;20474;-73
2021/12/30 03:22:24;;;;;;;0.20;0.20;;;;;;;10.63;96.33;96249.03;5033334;28;20061;-73
2021/12/30 03:24:50;;;;;;;0.40;0.30;;;;;;;10.62;96.19;96246.63;5033937;28;20049;-73
2021/12/30 03:27:17;;;;;;;0.30;0.30;;;;;;;10.60;96.14;96248.88;5033388;28;20064;-72
2021/12/30 03:29:45;;;;;;;0.68;0.30;;;;;;;10.60;96.06;96249.69;5033849;28;20057;-73
2021/12/30 03:32:11;;;;;;;0.30;0.30;;;;;;;10.59;95.94;96248.06;5033336;28;20672;-73
2021/12/30 03:34:38;;;;;;;0.35;0.30;;;;;;;10.63;95.89;96243.56;5033593;28;20054;-72
2021/12/30 03:37:04;;;;;;;0.45;0.40;;;;;;;10.64;95.69;96244.38;5033333;28;20053;-73
2021/12/30 03:39:31;;;;;;;0.40;0.30;;;;;;;10.61;95.84;96253.19;5033823;28;20045;-72
2021/12/30 03:41:57;;;;;;;0.35;0.22;;;;;;;10.63;95.52;96254.47;5033685;28;20045;-73
2021/12/30 03:44:24;;;;;;;0.20;0.20;;;;;;;10.64;95.49;96249.81;5032943;28;20056;-73
2021/12/30 03:46:52;;;;;;;0.95;0.20;;;;;;;10.62;95.31;96254.78;5033533;28;20422;-72
2021/12/30 03:49:18;;;;;;;0.68;0.40;;;;;;;10.63;95.19;96270.81;5033247;28;20077;-73
2021/12/30 03:51:45;;;;;;;0.47;0.40;;;;;;;10.64;94.85;96272.41;5033356;28;20057;-72
2021/12/30 03:54:11;;;;;;;1.27;0.30;;;;;;;10.64;94.62;96279.78;5032868;28;20049;-72
2021/12/30 03:56:38;;;;;;;1.55;0.40;;;;;;;10.62;94.61;96282.03;5033439;28;20416;-72
2021/12/30 03:59:04;;;;;;;0.65;0.40;;;;;;;10.66;94.36;96286.53;5032994;28;20385;-72
2021/12/30 04:01:31;;;;;;;0.95;0.50;;;;;;;10.68;94.17;96294.34;5033362;28;20046;-72
2021/12/30 04:04:00;;;;;;;2.20;0.38;;;;;;;10.69;94.08;96290.50;5033203;28;20435;-72
2021/12/30 04:06:27;;;;;;;0.50;0.40;;;;;;;10.69;93.94;96307.66;5032952;28;20041;-73
2021/12/30 04:08:55;;;;;;;0.75;0.63;;;;;;;10.67;93.90;96309.91;5033079;28;20073;-72
2021/12/30 04:11:24;;;;;;;0.82;0.40;;;;;;;10.67;94.05;96325.44;5032447;28;20042;-73
2021/12/30 04:13:51;;;;;;;0.32;0.30;;;;;;;10.66;94.33;96321.13;5040922;28;20041;-73
2021/12/30 04:16:19;;;;;;;1.15;0.55;;;;;;;10.68;94.08;96327.03;5052442;28;20454;-73
2021/12/30 04:18:48;;;;;;;0.60;0.40;;;;;;;10.71;93.81;96338.09;5052867;28;20491;-72
2021/12/30 04:21:16;;;;;;;1.33;0.40;;;;;;;10.68;93.73;96352.34;5052426;28;20049;-73
2021/12/30 04:23:43;;;;;;;2.05;0.43;;;;;;;10.66;94.07;96360.03;5052422;28;20411;-72
2021/12/30 04:26:09;;;;;;;1.33;0.50;;;;;;;10.66;94.11;96357.31;5052250;28;20052;-72
2021/12/30 04:28:36;;;;;;;1.55;0.40;;;;;;;10.69;94.17;96359.38;5052685;28;20045;-73
2021/12/30 04:31:03;;;;;;;2.05;0.32;;;;;;;10.69;94.18;96370.28;5052172;28;20606;-72
2021/12/30 04:33:29;;;;;;;2.60;0.40;;;;;;;10.70;94.55;96362.91;5052677;28;20056;-73
2021/12/30 04:35:57;;;;;;;0.85;0.50;;;;;;;10.70;94.58;96368.34;5052479;28;20052;-73
2021/12/30 04:38:25;;;;;;;1.30;0.52;;;;;;;10.66;94.37;96372.88;5052062;28;20072;-73
2021/12/30 04:40:52;;;;;;;0.40;0.40;;;;;;;10.64;94.84;96381.31;5052603;28;20047;-73
2021/12/30 04:43:19;;;;;;;0.95;0.40;;;;;;;10.63;94.88;96382.44;5051073;28;20049;-73
2021/12/30 04:45:46;;;;;;;0.32;0.32;;;;;;;10.64;95.06;96400.38;5052186;28;20695;-73
2021/12/30 04:48:13;;;;;;;1.20;0.40;;;;;;;10.65;95.24;96402.03;5051855;28;20454;-73
2021/12/30 04:50:40;;;;;;;0.57;0.40;;;;;;;10.66;94.92;96411.78;5052310;28;20049;-72
2021/12/30 04:53:07;;;;;;;2.50;0.40;;;;;;;10.68;95.06;96406.81;5051793;28;20053;-72
2021/12/30 04:55:34;;;;;;;0.43;0.22;;;;;;;10.66;95.09;96417.22;5052367;28;20051;-72
2021/12/30 04:58:01;;;;;;;1.02;0.57;;;;;;;10.67;95.05;96424.28;5052264;28;20049;-72
2021/12/30 05:00:27;;;;;;;1.27;0.40;;;;;;;10.68;95.16;96428.59;5051835;28;20044;-72
2021/12/30 05:03:04;;;;;;;0.60;0.40;;;;;;;10.68;95.03;96425.88;5052042;28;20055;-72
2021/12/30 05:05:30;;;;;;;0.75;0.40;;;;;;;10.72;94.83;96436.94;5051765;28;20114;-72
2021/12/30 05:07:57;;;;;;;0.47;0.30;;;;;;;10.75;94.90;96432.78;5051935;28;20045;-72
2021/12/30 05:10:23;;;;;;;0.50;0.30;;;;;;;10.77;95.01;96441.44;5051520;28;20048;-72
2021/12/30 05:12:51;;;;;;;1.65;0.30;;;;;;;10.78;94.74;96441.13;5051873;28;20049;-72
2021/12/30 05:15:18;;;;;;;0.77;0.40;;;;;;;10.81;94.76;96439.69;5031778;28;20111;-72
2021/12/30 05:17:44;;;;;;;1.13;0.30;;;;;;;10.86;94.39;96439.56;5031980;28;20049;-72
2021/12/30 05:20:12;;;;;;;0.30;0.30;;;;;;;10.88;94.16;96435.38;5031405;28;20045;-72
2021/12/30 05:22:38;;;;;;;0.52;0.40;;;;;;;10.88;94.06;96434.59;5030975;28;20049;-72
2021/12/30 05:25:06;;;;;;;0.52;0.30;;;;;;;10.88;93.96;96440.03;5031360;28;20049;-72
2021/12/30 05:27:32;;;;;;;0.73;0.30;;;;;;;10.88;94.07;96440.03;5031605;28;20057;-72
2021/12/30 05:30:00;;;;;;;0.47;0.20;;;;;;;10.87;93.83;96427.53;5031595;28;20049;-72
2021/12/30 05:32:27;;;;;;;0.70;0.50;;;;;;;10.86;93.73;96436.84;5031468;28;20044;-72
2021/12/30 05:34:53;;;;;;;0.40;0.40;;;;;;;10.87;93.70;96449.31;5031567;28;20054;-73
2021/12/30 05:37:20;;;;;;;0.20;0.20;;;;;;;10.88;93.54;96456.38;5030861;28;20057;-72
2021/12/30 05:39:46;;;;;;;0.50;0.40;;;;;;;10.88;93.40;96453.66;5031477;28;20060;-73
2021/12/30 05:42:13;;;;;;;0.40;0.35;;;;;;;10.91;93.29;96463.91;5030976;28;20049;-72
2021/12/30 05:44:40;;;;;;;1.67;0.38;;;;;;;10.89;93.32;96477.84;5046009;28;20048;-74
2021/12/30 05:47:08;;;;;;;0.52;0.22;;;;;;;10.91;93.11;96472.06;5050781;28;20098;-72
2021/12/30 05:49:35;;;;;;;0.93;0.30;;;;;;;10.92;93.09;96474.50;5051425;28;20044;-72
2021/12/30 05:52:02;;;;;;;1.85;0.30;;;;;;;10.93;93.10;96475.31;5050654;28;20056;-71
2021/12/30 05:54:28;;;;;;;0.43;0.30;;;;;;;10.94;92.85;96476.91;5051164;28;20056;-74
2021/12/30 05:56:55;;;;;;;1.58;0.52;;;;;;;10.95;92.85;96470.31;5051215;28;20057;-72
2021/12/30 05:59:21;;;;;;;0.32;0.32;;;;;;;10.96;92.86;96474.66;5050583;28;20056;-72
2021/12/30 06:01:47;;;;;;;0.75;0.40;;;;;;;10.96;92.76;96485.53;5050968;28;20510;-72
2021/12/30 06:04:15;;;;;;;0.85;0.40;;;;;;;10.95;92.68;96495.66;5050577;28;20052;-72
2021/12/30 06:06:42;;;;;;;1.13;0.47;;;;;;;10.93;92.53;96495.16;5050721;28;20522;-72
2021/12/30 06:09:08;;;;;;;2.60;0.40;;;;;;;10.92;92.46;96493.56;5050696;28;20048;-72
2021/12/30 06:11:35;;;;;;;0.95;0.40;;;;;;;10.92;92.42;96490.03;5051011;28;20060;-72
2021/12/30 06:14:01;;;;;;;0.47;0.40;;;;;;;10.93;92.51;96497.09;5049889;28;20056;-73
2021/12/30 06:16:28;;;;;;;1.70;0.30;;;;;;;10.92;92.37;96495.50;5050592;28;20044;-73
2021/12/30 06:18:57;;;;;;;2.17;0.60;;;;;;;10.91;92.34;96512.94;5050810;28;20063;-72
2021/12/30 06:21:25;;;;;;;2.70;0.57;;;;;;;10.93;92.36;96508.78;5050384;28;20048;-73
2021/12/30 06:23:51;;;;;;;1.10;0.40;;;;;;;10.96;92.25;96512.78;5050523;28;20049;-73
2021/12/30 06:26:18;;;;;;;1.08;0.40;;;;;;;10.95;92.12;96505.75;5050297;28;20466;-73
2021/12/30 06:28:44;;;;;;;0.82;0.50;;;;;;;10.95;92.42;96506.53;5050625;28;20411;-73
2021/12/30 06:31:11;;;;;;;1.08;0.50;;;;;;;10.97;92.27;96498.06;5050383;28;20049;-73
2021/12/30 06:33:37;;;;;;;0.95;0.55;;;;;;;11.01;92.25;96509.13;5050774;28;20064;-72
2021/12/30 06:36:05;;;;;;;2.85;0.40;;;;;;;11.03;92.03;96513.16;5053208;28;20106;-72
2021/12/30 06:38:33;;;;;;;0.50;0.50;;;;;;;11.06;91.74;96520.69;5054884;28;20040;-72
2021/12/30 06:40:59;;;;;;;1.58;0.50;;;;;;;11.06;92.04;96528.06;5054816;28;20048;-72
2021/12/30 06:43:26;;;;;;;1.00;0.50;;;;;;;11.07;91.81;96530.47;5053220;28;20056;-72
2021/12/30 06:45:52;;;;;;;0.30;0.30;;;;;;;11.07;91.53;96535.94;5054628;28;20076;-74
2021/12/30 06:48:19;;;;;;;1.95;0.50;;;;;;;11.09;91.57;96549.22;5054213;28;20403;-72
2021/12/30 06:50:51;;;;;;;2.58;0.60;;;;;;;11.08;91.70;96551.16;5054422;28;20052;-73
2021/12/30 06:53:18;;;;;;;0.93;0.47;;;;;;;11.09;91.55;96555.47;5054124;28;20049;-73
2021/12/30 06:55:46;;;;;;;0.30;0.30;;;;;;;11.12;91.54;96557.59;5054644;28;20407;-73
2021/12/30 06:58:12;;;;;;;0.95;0.40;;;;;;;11.13;91.51;96561.91;5054077;28;20052;-72
2021/12/30 07:00:39;;;;;;;0.52;0.50;;;;;;;11.15;91.50;96570.56;5054641;28;20048;-73
2021/12/30 07:03:06;;;;;;;0.98;0.40;;;;;;;11.16;91.65;96569.44;5054031;28;20044;-72
2021/12/30 07:05:33;;;;;;;1.15;0.40;;;;;;;11.13;92.11;96570.09;5054104;28;20127;-73
2021/12/30 07:08:00;;;;;;;0.95;0.40;;;;;;;11.16;92.66;96574.09;5054471;28;20049;-73
2021/12/30 07:10:27;;;;;;;0.40;0.40;;;;;;;11.05;94.30;96575.50;5053772;28;20053;-72
2021/12/30 07:12:56;;;;;;;0.75;0.50;;;;;;;10.94;95.89;96581.22;5053636;28;20052;-72
2021/12/30 07:15:22;;;;;;;0.50;0.50;;;;;;;10.89;96.86;96572.41;5033680;28;20056;-73
2021/12/30 07:17:49;;;;;;;1.70;0.80;;;;;;;10.86;97.67;96573.03;5034105;28;20049;-73
2021/12/30 07:20:16;;;;;;;0.70;0.70;;;;;;;10.84;97.88;96569.81;5033758;28;20092;-72
2021/12/30 07:22:42;;;;;;;1.15;0.88;;;;;;;10.82;98.17;96572.84;5033766;28;20045;-72
2021/12/30 07:25:16;;;;;;;1.38;1.00;;;;;;;10.83;98.44;96579.09;5033543;28;20049;-72
2021/12/30 07:27:42;;;;;;;;;;;;;;;10.82;98.29;96577.50;5034388;28;20053;-73
2021/12/30 07:30:12;;;;;;;1.98;1.30;;;;;;;10.79;98.38;96578.13;5033341;28;19921;-73
2021/12/30 07:32:38;;;;;;;3.53;1.33;;;;;;;10.79;98.62;96576.19;5033773;28;20056;-72
2021/12/30 07:35:06;;;;;;;2.00;1.30;;;;;;;10.81;98.51;96590.31;5033279;28;20053;-72
2021/12/30 07:37:32;;;;;;;4.68;1.30;;;;;;;10.87;98.49;96582.81;5033861;28;20405;-72
2021/12/30 07:39:59;;;;;;;3.50;1.77;;;;;;;10.87;98.23;96585.53;5033730;28;20049;-72
2021/12/30 07:42:25;;;;;;;3.03;1.10;;;;;;;10.88;98.00;96592.59;5033144;28;20045;-73
2021/12/30 07:44:52;;;;;;;2.78;1.23;;;;;;;10.93;98.04;96600.63;5049878;28;20076;-72
2021/12/30 07:47:19;;;;;;;1.90;1.10;;;;;;;10.93;97.42;96595.19;5052377;28;20075;-72
2021/12/30 07:49:46;;;;;;;3.22;1.40;;;;;;;10.94;97.42;96588.59;5053464;28;20045;-72
2021/12/30 07:52:13;;;;;;;4.50;1.40;;;;;;;10.95;96.96;96592.94;5053067;28;20075;-72
2021/12/30 07:54:40;;;;;;;2.70;0.93;;;;;;;10.97;96.77;96590.72;5053470;28;20056;-72
2021/12/30 07:57:07;;;;;;;2.17;0.93;;;;;;;10.94;96.89;96594.84;5052871;28;20045;-72
2021/12/30 07:59:33;;;;;;;2.47;1.10;;;;;;;10.94;96.71;96586.69;5053304;28;20049;-72
2021/12/30 08:02:00;;;;;;;3.42;1.17;;;;;;;10.93;96.92;96592.44;5053081;28;20526;-72
2021/12/30 08:04:28;;;;;;;4.15;1.00;;;;;;;10.93;96.90;96593.25;5052665;28;20044;-72
2021/12/30 08:06:54;;;;;;;2.75;1.00;;;;;;;10.89;97.10;96594.19;5053056;28;20049;-72
2021/12/30 08:09:21;;;;;;;6.18;1.65;;;;;;;10.89;97.42;96602.38;5052714;28;20052;-72
2021/12/30 08:11:47;;;;;;;1.85;1.15;;;;;;;10.90;97.49;96602.03;5052693;28;20042;-72
2021/12/30 08:14:14;;;;;;;4.30;1.38;;;;;;;10.89;97.75;96594.19;5051623;28;20045;-72
2021/12/30 08:16:40;;;;;;;5.45;1.00;;;;;;;10.89;97.91;96594.19;5052989;28;20041;-72
2021/12/30 08:19:07;;;;;;;2.33;0.98;;;;;;;10.90;97.97;96595.78;5052312;28;20500;-72
2021/12/30 08:21:35;;;;;;;1.80;1.10;;;;;;;10.90;98.01;96593.06;5052793;28;20048;-72
2021/12/30 08:24:01;;;;;;;2.90;1.00;;;;;;;10.87;98.22;96597.25;5052894;28;20052;-72
2021/12/30 08:26:28;;;;;;;2.50;1.00;;;;;;;10.86;98.41;96592.91;5052413;28;20079;-72
2021/12/30 08:28:54;;;;;;;2.67;1.00;;;;;;;10.86;98.58;96594.84;5052546;28;20079;-72
2021/12/30 08:31:20;;;;;;;2.35;1.10;;;;;;;10.83;98.74;96595.44;5052416;28;20103;-72
2021/12/30 08:33:47;;;;;;;1.60;0.90;;;;;;;10.84;98.90;96588.88;5052656;28;20049;-72
2021/12/30 08:36:13;;;;;;;2.03;1.10;;;;;;;10.85;99.11;96587.75;5052289;28;20045;-72
2021/12/30 08:38:41;;;;;;;2.47;1.15;;;;;;;10.88;99.14;96587.94;5052476;28;20056;-72
2021/12/30 08:41:08;;;;;;;2.67;1.23;;;;;;;10.89;99.47;96584.09;5052072;28;20618;-74
2021/12/30 08:43:34;;;;;;;1.45;0.73;;;;;;;10.94;99.12;96580.44;5051405;28;20108;-72
2021/12/30 08:46:00;;;;;;;4.10;0.85;;;;;;;10.96;98.85;96581.75;5052322;28;20040;-72
2021/12/30 08:48:27;;;;;;;2.42;0.80;;;;;;;10.95;98.44;96582.03;5052174;28;20045;-72
2021/12/30 08:50:53;;;;;;;0.80;0.60;;;;;;;10.95;98.51;96582.03;5052456;28;20049;-72
2021/12/30 08:53:22;;;;;;;2.20;0.80;;;;;;;10.95;98.70;96591.00;5051850;28;20107;-72
2021/12/30 08:55:49;;;;;;;1.95;0.60;;;;;;;10.97;98.83;96577.09;5052282;28;20049;-72
2021/12/30 08:58:16;;;;;;;1.55;0.60;;;;;;;10.97;98.54;96579.81;5050693;28;20072;-72
2021/12/30 09:00:46;;;;;;;3.70;1.45;;;;;;;10.97;98.68;96593.44;5052179;28;20048;-72
2021/12/30 09:03:13;;;;;;;1.13;0.57;;;;;;;10.98;98.92;96592.31;5051395;28;20492;-72
2021/12/30 09:05:40;;;;;;;0.70;0.60;;;;;;;10.99;99.06;96599.38;5052190;28;20052;-72
2021/12/30 09:08:07;;;;;;;0.60;0.50;;;;;;;11.02;99.00;96601.47;5051628;28;20044;-72
2021/12/30 09:10:37;;;;;;;2.42;0.50;;;;;;;11.02;98.98;96601.47;5051927;28;20041;-74
2021/12/30 09:13:05;;;;;;;1.00;0.63;;;;;;;11.06;98.65;96605.16;5050568;28;20048;-72
2021/12/30 09:15:31;;;;;;;1.73;0.57;;;;;;;11.08;98.78;96607.59;5051906;28;20055;-72
2021/12/30 09:17:58;;;;;;;0.68;0.60;;;;;;;11.13;98.71;96610.97;5051716;28;20053;-72
2021/12/30 09:20:25;;;;;;;1.33;0.80;;;;;;;11.16;98.52;96615.78;5051250;28;20064;-72
2021/12/30 09:22:53;;;;;;;1.08;0.60;;;;;;;11.17;98.64;96606.50;5051446;28;20053;-72
2021/12/30 09:25:23;;;;;;;2.95;0.60;;;;;;;11.19;98.62;96609.72;5051163;28;20044;-72
2021/12/30 09:27:50;;;;;;;0.50;0.40;;;;;;;11.21;98.92;96615.63;5051446;28;20041;-72
2021/12/30 09:30:19;;;;;;;0.95;0.40;;;;;;;11.24;98.88;96609.56;5051097;28;20048;-72
2021/12/30 09:32:47;;;;;;;0.50;0.47;;;;;;;11.29;98.75;96624.19;5051395;28;20056;-72
2021/12/30 09:35:15;;;;;;;1.58;0.70;;;;;;;11.32;98.81;96623.53;5051158;28;20049;-72
2021/12/30 09:37:42;;;;;;;0.52;0.50;;;;;;;11.35;98.42;96612.00;5051435;28;20048;-72
2021/12/30 09:40:13;;;;;;;0.85;0.40;;;;;;;11.37;98.20;96609.75;5050881;28;20480;-72
2021/12/30 09:42:43;;;;;;;0.30;0.30;;;;;;;11.37;97.70;96616.00;5051316;28;20496;-71
2021/12/30 09:45:11;;;;;;;0.57;0.40;;;;;;;11.40;97.47;96620.03;5050005;28;20047;-72
2021/12/30 09:47:43;;;;;;;2.03;0.65;;;;;;;11.39;97.34;96618.44;5051068;28;20535;-72
2021/12/30 09:50:10;;;;;;;5.53;0.50;;;;;;;11.43;97.26;96613.94;5050818;28;20048;-72
2021/12/30 09:52:36;;;;;;;0.50;0.40;;;;;;;11.43;97.27;96620.22;5051195;28;20045;-72
2021/12/30 09:55:03;;;;;;;1.15;0.55;;;;;;;11.43;97.07;96620.22;5050770;28;20052;-74
2021/12/30 09:57:30;;;;;;;1.05;0.50;;;;;;;11.41;97.34;96616.97;5051124;28;20206;-74
2021/12/30 09:59:56;;;;;;;0.85;0.50;;;;;;;11.40;97.62;96614.59;5049723;28;20060;-74
2021/12/30 10:02:23;;;;;;;2.90;0.70;;;;;;;11.39;98.45;96612.97;5050491;28;20051;-74
2021/12/30 10:05:04;;;;;;;1.75;0.80;;;;;;;11.36;98.57;96608.94;5051144;28;20044;-72
2021/12/30 10:07:31;;;;;;;1.58;0.70;;;;;;;11.34;98.71;96602.22;5050783;28;20147;-72
2021/12/30 10:10:01;;;;;;;0.50;0.50;;;;;;;11.34;99.12;96610.41;5050814;28;20521;-72
2021/12/30 10:12:35;;;;;;;0.77;0.55;;;;;;;11.36;98.96;96605.44;5050844;28;20041;-72
2021/12/30 10:15:02;;;;;;;1.67;0.60;;;;;;;11.42;98.82;96601.44;5049643;28;20491;-71
2021/12/30 10:17:29;;;;;;;0.80;0.60;;;;;;;11.46;98.88;96602.41;5050807;28;20041;-72
2021/12/30 10:20:16;;;;;;;1.25;0.70;;;;;;;11.53;98.59;96599.19;5050827;28;20496;-72
2021/12/30 10:22:43;;;;;;;2.65;0.80;;;;;;;11.55;98.07;96600.50;5050455;28;20048;-71
2021/12/30 10:25:25;;;;;;;1.45;0.68;;;;;;;11.56;98.04;96599.38;5050513;28;20048;-72
2021/12/30 10:27:53;;;;;;;0.80;0.60;;;;;;;11.55;98.08;96595.06;5050725;28;20052;-72
2021/12/30 10:30:29;;;;;;;0.93;0.68;;;;;;;11.56;98.26;96596.66;5050212;28;20037;-72
2021/12/30 10:33:10;;;;;;;3.25;0.73;;;;;;;11.55;98.70;96600.50;5050870;28;20115;-72
2021/12/30 10:35:39;;;;;;;4.25;0.70;;;;;;;11.54;99.04;96598.91;5050505;28;20064;-72
2021/12/30 10:38:09;;;;;;;1.17;0.80;;;;;;;11.49;99.60;96580.75;5050328;28;20053;-72
2021/12/30 10:40:38;;;;;;;2.25;1.02;;;;;;;11.50;100.00;96595.19;5050884;28;20087;-72
2021/12/30 10:43:25;;;;;;;2.83;1.10;;;;;;;11.49;100.00;96593.59;5049492;28;20064;-72
2021/12/30 10:46:06;;;;;;;1.13;0.80;;;;;;;11.53;100.00;96601.94;5050715;28;20127;-72
2021/12/30 10:48:33;;;;;;;2.85;0.98;;;;;;;11.53;100.00;96597.28;5050365;28;20048;-72
2021/12/30 10:51:12;;;;;;;2.97;0.90;;;;;;;11.57;100.00;96594.72;5050653;28;20056;-72
2021/12/30 10:53:39;;;;;;;2.58;0.80;;;;;;;11.56;100.00;96596.66;5050369;28;20110;-72
2021/12/30 10:56:23;;;;;;;2.13;1.20;;;;;;;11.60;100.00;96594.91;5048785;28;20056;-72
2021/12/30 10:58:50;;;;;;;2.97;1.23;;;;;;;11.62;100.00;96594.56;5050502;28;20049;-72
2021/12/30 11:01:18;;;;;;;2.42;1.23;;;;;;;11.64;100.00;96595.88;5050003;28;20111;-73
2021/12/30 11:03:56;;;;;;;2.97;1.40;;;;;;;11.66;100.00;96582.72;5050431;28;20407;-72
2021/12/30 11:06:24;;;;;;;2.10;1.27;;;;;;;11.68;100.00;96598.75;5049792;28;20103;-72
2021/12/30 11:09:05;;;;;;;2.58;1.00;;;;;;;11.72;100.00;96597.00;5050428;28;20045;-73
2021/12/30 11:11:32;;;;;;;1.42;0.90;;;;;;;11.74;99.98;96603.75;5050351;28;20040;-72
2021/12/30 11:14:01;;;;;;;1.58;1.00;;;;;;;11.75;99.60;96610.81;5049539;28;20056;-73
2021/12/30 11:16:28;;;;;;;1.83;0.90;;;;;;;11.80;99.56;96612.59;5050258;28;20041;-73
2021/12/30 11:18:56;;;;;;;3.55;0.80;;;;;;;11.82;99.02;96610.34;5050246;28;20052;-73
2021/12/30 11:21:44;;;;;;;1.52;0.60;;;;;;;11.88;98.35;96614.53;5051576;28;20049;-72
2021/12/30 11:24:11;;;;;;;0.63;0.60;;;;;;;11.98;97.85;96602.50;5053533;28;20092;-72
2021/12/30 11:26:39;;;;;;;1.23;0.70;;;;;;;12.08;96.69;96601.38;5053874;28;20455;-72
2021/12/30 11:29:07;;;;;;;0.70;0.40;;;;;;;12.20;96.03;96605.06;5053494;28;20056;-72
2021/12/30 11:31:35;;;;;;;0.80;0.50;;;;;;;12.26;95.09;96609.22;5053851;28;20052;-73
2021/12/30 11:34:01;;;;;;;0.50;0.50;;;;;;;12.36;94.22;96607.31;5053810;28;20040;-73